Ashland, Illinois
Current Conditions -  °F | °C
As of 6:15 AM on Thursday 29 Jan 2015 (Local Time) from KIJX Reporting Station
Overcast Overcast  
Wind Chill: 30°   Ceiling: 1500
Heat Index: 41°   Visibility: 7mi
Dew Point: 35°   Wind: 26mph
Humidity: 80%   Direction: 290°WNW
Pressure: 29.9"   Gusts: 35mph
Location:  39.89°N, 90.01°W
Report Text: KIJX 291215Z AUTO 29023G30KT 7SM OVC015 05/02 A2990 RMK AO2 T00480016
Loading
Personal Weather Stations






























Interactive Weather Map New forecast layout! Learn more

10-Day Weather Forecast

Advertisements
Track Severe Weather on mobile